sensor_id;sensor_type;location;lat;lon;timestamp;P1;durP1;ratioP1;P2;durP2;ratioP2
6127;SDS011;7073;42.672;23.256;2022-11-03T00:01:38;8.90;;;4.13;;
6127;SDS011;7073;42.672;23.256;2022-11-03T00:04:06;5.23;;;4.47;;
6127;SDS011;7073;42.672;23.256;2022-11-03T00:06:34;10.17;;;4.17;;
6127;SDS011;7073;42.672;23.256;2022-11-03T00:09:04;11.87;;;5.13;;
6127;SDS011;7073;42.672;23.256;2022-11-03T00:11:32;6.77;;;4.17;;
6127;SDS011;7073;42.672;23.256;2022-11-03T00:13:59;25.63;;;6.20;;
6127;SDS011;7073;42.672;23.256;2022-11-03T00:16:27;6.80;;;4.20;;
6127;SDS011;7073;42.672;23.256;2022-11-03T00:18:54;8.13;;;5.50;;
6127;SDS011;7073;42.672;23.256;2022-11-03T00:21:20;10.30;;;4.30;;
6127;SDS011;7073;42.672;23.256;2022-11-03T00:23:47;10.20;;;3.90;;
6127;SDS011;7073;42.672;23.256;2022-11-03T00:26:17;9.00;;;4.93;;
6127;SDS011;7073;42.672;23.256;2022-11-03T00:28:46;8.00;;;4.47;;
6127;SDS011;7073;42.672;23.256;2022-11-03T00:31:15;7.23;;;4.77;;
6127;SDS011;7073;42.672;23.256;2022-11-03T00:33:43;9.97;;;4.70;;
6127;SDS011;7073;42.672;23.256;2022-11-03T00:36:13;10.03;;;4.90;;
6127;SDS011;7073;42.672;23.256;2022-11-03T00:38:41;8.50;;;4.60;;
6127;SDS011;7073;42.672;23.256;2022-11-03T00:41:08;8.60;;;5.00;;
6127;SDS011;7073;42.672;23.256;2022-11-03T00:43:37;9.40;;;5.17;;
6127;SDS011;7073;42.672;23.256;2022-11-03T00:46:04;12.63;;;5.27;;
6127;SDS011;7073;42.672;23.256;2022-11-03T00:48:32;9.40;;;5.00;;
6127;SDS011;7073;42.672;23.256;2022-11-03T00:51:01;13.63;;;5.17;;
6127;SDS011;7073;42.672;23.256;2022-11-03T00:53:29;6.93;;;4.43;;
6127;SDS011;7073;42.672;23.256;2022-11-03T00:55:56;8.50;;;4.23;;
6127;SDS011;7073;42.672;23.256;2022-11-03T00:58:23;13.27;;;5.20;;
6127;SDS011;7073;42.672;23.256;2022-11-03T01:00:51;7.23;;;4.43;;
6127;SDS011;7073;42.672;23.256;2022-11-03T01:03:24;11.60;;;4.93;;
6127;SDS011;7073;42.672;23.256;2022-11-03T01:05:51;9.73;;;4.73;;
6127;SDS011;7073;42.672;23.256;2022-11-03T01:08:35;9.07;;;4.77;;
6127;SDS011;7073;42.672;23.256;2022-11-03T01:11:06;8.37;;;4.97;;
6127;SDS011;7073;42.672;23.256;2022-11-03T01:13:51;6.50;;;4.57;;
6127;SDS011;7073;42.672;23.256;2022-11-03T01:16:20;9.70;;;4.53;;
6127;SDS011;7073;42.672;23.256;2022-11-03T01:18:47;14.10;;;5.03;;
6127;SDS011;7073;42.672;23.256;2022-11-03T01:21:14;7.70;;;4.57;;
6127;SDS011;7073;42.672;23.256;2022-11-03T01:23:41;9.03;;;5.23;;
6127;SDS011;7073;42.672;23.256;2022-11-03T01:26:08;9.47;;;4.33;;
6127;SDS011;7073;42.672;23.256;2022-11-03T01:28:37;15.93;;;5.20;;
6127;SDS011;7073;42.672;23.256;2022-11-03T01:31:05;7.63;;;4.87;;
6127;SDS011;7073;42.672;23.256;2022-11-03T01:33:34;11.17;;;5.17;;
6127;SDS011;7073;42.672;23.256;2022-11-03T01:36:01;10.60;;;4.93;;
6127;SDS011;7073;42.672;23.256;2022-11-03T01:38:30;11.97;;;5.63;;
6127;SDS011;7073;42.672;23.256;2022-11-03T01:40:58;11.53;;;4.83;;
6127;SDS011;7073;42.672;23.256;2022-11-03T01:43:25;9.67;;;5.70;;
6127;SDS011;7073;42.672;23.256;2022-11-03T01:45:58;7.43;;;4.70;;
6127;SDS011;7073;42.672;23.256;2022-11-03T01:48:29;10.77;;;6.00;;
6127;SDS011;7073;42.672;23.256;2022-11-03T01:50:59;16.27;;;7.57;;
6127;SDS011;7073;42.672;23.256;2022-11-03T01:53:28;11.00;;;6.20;;
6127;SDS011;7073;42.672;23.256;2022-11-03T01:55:56;12.17;;;6.40;;
6127;SDS011;7073;42.672;23.256;2022-11-03T01:58:25;11.60;;;6.97;;
6127;SDS011;7073;42.672;23.256;2022-11-03T02:00:55;14.77;;;6.17;;
6127;SDS011;7073;42.672;23.256;2022-11-03T02:03:23;14.07;;;7.30;;
6127;SDS011;7073;42.672;23.256;2022-11-03T02:05:52;13.00;;;7.03;;
6127;SDS011;7073;42.672;23.256;2022-11-03T02:08:21;11.13;;;7.00;;
6127;SDS011;7073;42.672;23.256;2022-11-03T02:10:51;14.63;;;8.00;;
6127;SDS011;7073;42.672;23.256;2022-11-03T02:13:18;10.40;;;7.33;;
6127;SDS011;7073;42.672;23.256;2022-11-03T02:15:47;15.60;;;6.33;;
6127;SDS011;7073;42.672;23.256;2022-11-03T02:18:15;14.10;;;6.37;;
6127;SDS011;7073;42.672;23.256;2022-11-03T02:20:45;14.67;;;7.80;;
6127;SDS011;7073;42.672;23.256;2022-11-03T02:23:25;11.40;;;7.70;;
6127;SDS011;7073;42.672;23.256;2022-11-03T02:25:59;10.47;;;6.40;;
6127;SDS011;7073;42.672;23.256;2022-11-03T02:28:27;12.70;;;6.10;;
6127;SDS011;7073;42.672;23.256;2022-11-03T02:30:58;13.17;;;5.23;;
6127;SDS011;7073;42.672;23.256;2022-11-03T02:33:36;8.30;;;5.07;;
6127;SDS011;7073;42.672;23.256;2022-11-03T02:36:15;13.37;;;5.77;;
6127;SDS011;7073;42.672;23.256;2022-11-03T02:38:47;14.57;;;6.20;;
6127;SDS011;7073;42.672;23.256;2022-11-03T02:41:20;10.33;;;5.67;;
6127;SDS011;7073;42.672;23.256;2022-11-03T02:43:49;13.17;;;5.60;;
6127;SDS011;7073;42.672;23.256;2022-11-03T02:46:17;11.37;;;5.70;;
6127;SDS011;7073;42.672;23.256;2022-11-03T02:48:44;12.67;;;6.83;;
6127;SDS011;7073;42.672;23.256;2022-11-03T02:51:12;16.80;;;6.30;;
6127;SDS011;7073;42.672;23.256;2022-11-03T02:53:41;12.20;;;6.70;;
6127;SDS011;7073;42.672;23.256;2022-11-03T02:56:12;12.90;;;6.90;;
6127;SDS011;7073;42.672;23.256;2022-11-03T02:58:46;16.20;;;7.50;;
6127;SDS011;7073;42.672;23.256;2022-11-03T03:01:18;13.03;;;7.27;;
6127;SDS011;7073;42.672;23.256;2022-11-03T03:03:54;9.00;;;6.60;;
6127;SDS011;7073;42.672;23.256;2022-11-03T03:06:25;13.80;;;7.20;;
6127;SDS011;7073;42.672;23.256;2022-11-03T03:08:57;18.57;;;8.20;;
6127;SDS011;7073;42.672;23.256;2022-11-03T03:11:28;12.70;;;7.30;;
6127;SDS011;7073;42.672;23.256;2022-11-03T03:14:06;15.13;;;7.80;;
6127;SDS011;7073;42.672;23.256;2022-11-03T03:16:41;21.60;;;7.30;;
6127;SDS011;7073;42.672;23.256;2022-11-03T03:19:17;16.73;;;7.73;;
6127;SDS011;7073;42.672;23.256;2022-11-03T03:21:49;11.47;;;7.00;;
6127;SDS011;7073;42.672;23.256;2022-11-03T03:24:21;16.37;;;6.90;;
6127;SDS011;7073;42.672;23.256;2022-11-03T03:26:54;10.50;;;6.83;;
6127;SDS011;7073;42.672;23.256;2022-11-03T03:29:26;14.33;;;6.77;;
6127;SDS011;7073;42.672;23.256;2022-11-03T03:31:57;12.63;;;7.53;;
6127;SDS011;7073;42.672;23.256;2022-11-03T03:34:26;13.97;;;7.20;;
6127;SDS011;7073;42.672;23.256;2022-11-03T03:36:56;13.43;;;7.50;;
6127;SDS011;7073;42.672;23.256;2022-11-03T03:39:25;11.73;;;6.83;;
6127;SDS011;7073;42.672;23.256;2022-11-03T03:41:57;13.03;;;7.13;;
6127;SDS011;7073;42.672;23.256;2022-11-03T03:44:28;12.53;;;6.70;;
6127;SDS011;7073;42.672;23.256;2022-11-03T03:46:57;12.03;;;7.10;;
6127;SDS011;7073;42.672;23.256;2022-11-03T03:49:26;14.30;;;8.10;;
6127;SDS011;7073;42.672;23.256;2022-11-03T03:51:53;13.20;;;8.03;;
6127;SDS011;7073;42.672;23.256;2022-11-03T03:54:20;13.43;;;7.07;;
6127;SDS011;7073;42.672;23.256;2022-11-03T03:56:48;15.03;;;7.53;;
6127;SDS011;7073;42.672;23.256;2022-11-03T03:59:18;17.83;;;6.80;;
6127;SDS011;7073;42.672;23.256;2022-11-03T04:01:47;13.17;;;6.40;;
6127;SDS011;7073;42.672;23.256;2022-11-03T04:04:13;14.93;;;7.00;;
6127;SDS011;7073;42.672;23.256;2022-11-03T04:06:40;12.63;;;7.10;;
6127;SDS011;7073;42.672;23.256;2022-11-03T04:09:07;14.60;;;6.57;;
6127;SDS011;7073;42.672;23.256;2022-11-03T04:11:34;14.50;;;7.80;;
6127;SDS011;7073;42.672;23.256;2022-11-03T04:14:18;12.83;;;6.40;;
6127;SDS011;7073;42.672;23.256;2022-11-03T04:17:04;13.90;;;6.93;;
6127;SDS011;7073;42.672;23.256;2022-11-03T04:19:52;17.07;;;8.17;;
6127;SDS011;7073;42.672;23.256;2022-11-03T04:22:36;13.70;;;6.57;;
6127;SDS011;7073;42.672;23.256;2022-11-03T04:25:03;12.47;;;7.00;;
6127;SDS011;7073;42.672;23.256;2022-11-03T04:27:31;20.20;;;7.03;;
6127;SDS011;7073;42.672;23.256;2022-11-03T04:30:05;12.30;;;6.63;;
6127;SDS011;7073;42.672;23.256;2022-11-03T04:32:40;44.97;;;26.23;;
6127;SDS011;7073;42.672;23.256;2022-11-03T04:35:13;16.83;;;10.13;;
6127;SDS011;7073;42.672;23.256;2022-11-03T04:37:42;11.80;;;6.97;;
6127;SDS011;7073;42.672;23.256;2022-11-03T04:40:12;13.20;;;7.43;;
6127;SDS011;7073;42.672;23.256;2022-11-03T04:42:40;12.43;;;7.20;;
6127;SDS011;7073;42.672;23.256;2022-11-03T04:45:12;15.60;;;7.33;;
6127;SDS011;7073;42.672;23.256;2022-11-03T04:47:43;17.30;;;7.67;;
6127;SDS011;7073;42.672;23.256;2022-11-03T04:50:12;12.27;;;7.20;;
6127;SDS011;7073;42.672;23.256;2022-11-03T04:52:43;16.47;;;7.53;;
6127;SDS011;7073;42.672;23.256;2022-11-03T04:55:11;19.63;;;8.63;;
6127;SDS011;7073;42.672;23.256;2022-11-03T04:57:40;22.00;;;8.87;;
6127;SDS011;7073;42.672;23.256;2022-11-03T05:00:09;12.73;;;7.37;;
6127;SDS011;7073;42.672;23.256;2022-11-03T05:02:41;17.80;;;7.67;;
6127;SDS011;7073;42.672;23.256;2022-11-03T05:05:14;18.13;;;8.47;;
6127;SDS011;7073;42.672;23.256;2022-11-03T05:07:43;23.47;;;8.90;;
6127;SDS011;7073;42.672;23.256;2022-11-03T05:10:14;16.43;;;7.90;;
6127;SDS011;7073;42.672;23.256;2022-11-03T05:12:43;19.70;;;9.40;;
6127;SDS011;7073;42.672;23.256;2022-11-03T05:15:22;20.53;;;9.47;;
6127;SDS011;7073;42.672;23.256;2022-11-03T05:17:54;19.80;;;9.40;;
6127;SDS011;7073;42.672;23.256;2022-11-03T05:20:25;17.70;;;8.40;;
6127;SDS011;7073;42.672;23.256;2022-11-03T05:23:00;16.57;;;7.93;;
6127;SDS011;7073;42.672;23.256;2022-11-03T05:25:34;15.53;;;9.13;;
6127;SDS011;7073;42.672;23.256;2022-11-03T05:28:08;19.20;;;8.70;;
6127;SDS011;7073;42.672;23.256;2022-11-03T05:30:45;17.23;;;8.60;;
6127;SDS011;7073;42.672;23.256;2022-11-03T05:33:14;23.00;;;9.70;;
6127;SDS011;7073;42.672;23.256;2022-11-03T05:35:47;16.73;;;9.50;;
6127;SDS011;7073;42.672;23.256;2022-11-03T05:38:15;24.83;;;9.13;;
6127;SDS011;7073;42.672;23.256;2022-11-03T05:40:47;26.43;;;9.63;;
6127;SDS011;7073;42.672;23.256;2022-11-03T05:43:15;21.20;;;9.20;;
6127;SDS011;7073;42.672;23.256;2022-11-03T05:45:44;32.17;;;10.67;;
6127;SDS011;7073;42.672;23.256;2022-11-03T05:48:14;24.37;;;9.40;;
6127;SDS011;7073;42.672;23.256;2022-11-03T05:50:45;22.47;;;8.80;;
6127;SDS011;7073;42.672;23.256;2022-11-03T05:53:18;17.10;;;8.50;;
6127;SDS011;7073;42.672;23.256;2022-11-03T05:55:52;38.30;;;13.33;;
6127;SDS011;7073;42.672;23.256;2022-11-03T05:58:21;26.50;;;10.93;;
6127;SDS011;7073;42.672;23.256;2022-11-03T06:00:51;19.57;;;8.87;;
6127;SDS011;7073;42.672;23.256;2022-11-03T06:03:20;30.37;;;10.23;;
6127;SDS011;7073;42.672;23.256;2022-11-03T06:05:49;34.27;;;9.10;;
6127;SDS011;7073;42.672;23.256;2022-11-03T06:08:19;33.50;;;11.60;;
6127;SDS011;7073;42.672;23.256;2022-11-03T06:10:49;34.60;;;12.23;;
6127;SDS011;7073;42.672;23.256;2022-11-03T06:13:19;18.30;;;9.33;;
6127;SDS011;7073;42.672;23.256;2022-11-03T06:15:55;23.50;;;9.37;;
6127;SDS011;7073;42.672;23.256;2022-11-03T06:18:27;24.40;;;8.33;;
6127;SDS011;7073;42.672;23.256;2022-11-03T06:20:57;20.20;;;8.60;;
6127;SDS011;7073;42.672;23.256;2022-11-03T06:23:30;21.70;;;10.13;;
6127;SDS011;7073;42.672;23.256;2022-11-03T06:25:59;28.50;;;9.83;;
6127;SDS011;7073;42.672;23.256;2022-11-03T06:28:28;25.53;;;11.97;;
6127;SDS011;7073;42.672;23.256;2022-11-03T06:30:57;27.60;;;11.63;;
6127;SDS011;7073;42.672;23.256;2022-11-03T06:33:24;35.50;;;13.80;;
6127;SDS011;7073;42.672;23.256;2022-11-03T06:35:54;30.03;;;12.93;;
6127;SDS011;7073;42.672;23.256;2022-11-03T06:38:29;34.13;;;12.47;;
6127;SDS011;7073;42.672;23.256;2022-11-03T06:40:59;25.00;;;11.87;;
6127;SDS011;7073;42.672;23.256;2022-11-03T06:43:29;18.17;;;10.87;;
6127;SDS011;7073;42.672;23.256;2022-11-03T06:46:07;31.23;;;15.10;;
6127;SDS011;7073;42.672;23.256;2022-11-03T06:48:42;31.93;;;14.50;;
6127;SDS011;7073;42.672;23.256;2022-11-03T06:51:13;24.13;;;12.20;;
6127;SDS011;7073;42.672;23.256;2022-11-03T06:53:43;27.23;;;12.80;;
6127;SDS011;7073;42.672;23.256;2022-11-03T06:56:10;22.00;;;12.10;;
6127;SDS011;7073;42.672;23.256;2022-11-03T06:58:40;32.03;;;14.00;;
6127;SDS011;7073;42.672;23.256;2022-11-03T07:01:10;39.77;;;14.03;;
6127;SDS011;7073;42.672;23.256;2022-11-03T07:03:39;24.03;;;13.47;;
6127;SDS011;7073;42.672;23.256;2022-11-03T07:06:11;28.97;;;13.93;;
6127;SDS011;7073;42.672;23.256;2022-11-03T07:08:45;35.30;;;17.00;;
6127;SDS011;7073;42.672;23.256;2022-11-03T07:11:14;35.00;;;14.80;;
6127;SDS011;7073;42.672;23.256;2022-11-03T07:13:43;27.90;;;14.40;;
6127;SDS011;7073;42.672;23.256;2022-11-03T07:16:12;37.37;;;14.73;;
6127;SDS011;7073;42.672;23.256;2022-11-03T07:18:41;29.60;;;16.20;;
6127;SDS011;7073;42.672;23.256;2022-11-03T07:21:18;26.73;;;14.57;;
6127;SDS011;7073;42.672;23.256;2022-11-03T07:23:52;28.10;;;14.03;;
6127;SDS011;7073;42.672;23.256;2022-11-03T07:26:19;29.23;;;16.20;;
6127;SDS011;7073;42.672;23.256;2022-11-03T07:28:46;22.83;;;12.57;;
6127;SDS011;7073;42.672;23.256;2022-11-03T07:31:15;30.73;;;14.57;;
6127;SDS011;7073;42.672;23.256;2022-11-03T07:33:45;25.43;;;13.77;;
6127;SDS011;7073;42.672;23.256;2022-11-03T07:36:14;20.90;;;12.00;;
6127;SDS011;7073;42.672;23.256;2022-11-03T07:38:45;25.27;;;14.00;;
6127;SDS011;7073;42.672;23.256;2022-11-03T07:41:17;20.40;;;12.47;;
6127;SDS011;7073;42.672;23.256;2022-11-03T07:43:48;22.93;;;14.80;;
6127;SDS011;7073;42.672;23.256;2022-11-03T07:46:19;23.80;;;14.70;;
6127;SDS011;7073;42.672;23.256;2022-11-03T07:48:47;27.97;;;15.50;;
6127;SDS011;7073;42.672;23.256;2022-11-03T07:51:17;33.47;;;14.80;;
6127;SDS011;7073;42.672;23.256;2022-11-03T07:53:47;27.40;;;14.03;;
6127;SDS011;7073;42.672;23.256;2022-11-03T07:56:20;24.83;;;13.90;;
6127;SDS011;7073;42.672;23.256;2022-11-03T07:58:49;24.23;;;13.30;;
6127;SDS011;7073;42.672;23.256;2022-11-03T08:01:23;34.00;;;14.83;;
6127;SDS011;7073;42.672;23.256;2022-11-03T08:03:52;22.33;;;14.23;;
6127;SDS011;7073;42.672;23.256;2022-11-03T08:06:22;29.97;;;14.40;;
6127;SDS011;7073;42.672;23.256;2022-11-03T08:08:49;24.03;;;15.37;;
6127;SDS011;7073;42.672;23.256;2022-11-03T08:11:16;30.50;;;16.83;;
6127;SDS011;7073;42.672;23.256;2022-11-03T08:13:44;32.60;;;16.50;;
6127;SDS011;7073;42.672;23.256;2022-11-03T08:16:10;29.73;;;15.70;;
6127;SDS011;7073;42.672;23.256;2022-11-03T08:18:37;31.17;;;18.30;;
6127;SDS011;7073;42.672;23.256;2022-11-03T08:21:05;27.77;;;17.77;;
6127;SDS011;7073;42.672;23.256;2022-11-03T08:23:31;30.93;;;17.80;;
6127;SDS011;7073;42.672;23.256;2022-11-03T08:25:58;31.47;;;18.07;;
6127;SDS011;7073;42.672;23.256;2022-11-03T08:28:25;40.87;;;20.60;;
6127;SDS011;7073;42.672;23.256;2022-11-03T08:30:53;26.77;;;17.10;;
6127;SDS011;7073;42.672;23.256;2022-11-03T08:33:25;29.33;;;17.70;;
6127;SDS011;7073;42.672;23.256;2022-11-03T08:35:53;23.80;;;14.80;;
6127;SDS011;7073;42.672;23.256;2022-11-03T08:38:20;27.63;;;16.13;;
6127;SDS011;7073;42.672;23.256;2022-11-03T08:41:04;26.10;;;15.07;;
6127;SDS011;7073;42.672;23.256;2022-11-03T08:43:31;26.90;;;15.40;;
6127;SDS011;7073;42.672;23.256;2022-11-03T08:45:59;27.97;;;15.33;;
6127;SDS011;7073;42.672;23.256;2022-11-03T08:48:26;19.47;;;13.63;;
6127;SDS011;7073;42.672;23.256;2022-11-03T08:50:53;22.03;;;13.80;;
6127;SDS011;7073;42.672;23.256;2022-11-03T08:53:21;27.37;;;14.47;;
6127;SDS011;7073;42.672;23.256;2022-11-03T08:55:49;21.03;;;12.90;;
6127;SDS011;7073;42.672;23.256;2022-11-03T08:58:16;21.63;;;13.63;;
6127;SDS011;7073;42.672;23.256;2022-11-03T09:00:43;22.20;;;13.50;;
6127;SDS011;7073;42.672;23.256;2022-11-03T09:03:12;19.23;;;12.93;;
6127;SDS011;7073;42.672;23.256;2022-11-03T09:05:39;27.10;;;14.93;;
6127;SDS011;7073;42.672;23.256;2022-11-03T09:08:06;25.50;;;12.80;;
6127;SDS011;7073;42.672;23.256;2022-11-03T09:10:33;29.77;;;12.83;;
6127;SDS011;7073;42.672;23.256;2022-11-03T09:13:00;26.60;;;14.10;;
6127;SDS011;7073;42.672;23.256;2022-11-03T09:15:27;24.43;;;13.10;;
6127;SDS011;7073;42.672;23.256;2022-11-03T09:17:54;26.60;;;14.60;;
6127;SDS011;7073;42.672;23.256;2022-11-03T09:20:23;23.73;;;13.87;;
6127;SDS011;7073;42.672;23.256;2022-11-03T09:22:49;26.20;;;14.40;;
6127;SDS011;7073;42.672;23.256;2022-11-03T09:25:16;23.53;;;13.33;;
6127;SDS011;7073;42.672;23.256;2022-11-03T09:27:43;25.97;;;13.57;;
6127;SDS011;7073;42.672;23.256;2022-11-03T09:30:11;26.57;;;13.60;;
6127;SDS011;7073;42.672;23.256;2022-11-03T09:32:38;25.10;;;13.47;;
6127;SDS011;7073;42.672;23.256;2022-11-03T09:35:06;29.13;;;15.13;;
6127;SDS011;7073;42.672;23.256;2022-11-03T09:37:35;23.57;;;14.60;;
6127;SDS011;7073;42.672;23.256;2022-11-03T09:40:02;24.23;;;13.30;;
6127;SDS011;7073;42.672;23.256;2022-11-03T09:42:30;21.30;;;13.47;;
6127;SDS011;7073;42.672;23.256;2022-11-03T09:44:59;19.53;;;13.17;;
6127;SDS011;7073;42.672;23.256;2022-11-03T09:47:30;22.43;;;12.67;;
6127;SDS011;7073;42.672;23.256;2022-11-03T09:49:59;20.93;;;12.20;;
6127;SDS011;7073;42.672;23.256;2022-11-03T09:52:26;27.37;;;13.87;;
6127;SDS011;7073;42.672;23.256;2022-11-03T09:54:54;26.10;;;12.70;;
6127;SDS011;7073;42.672;23.256;2022-11-03T09:57:22;18.57;;;12.37;;
6127;SDS011;7073;42.672;23.256;2022-11-03T09:59:51;24.67;;;13.57;;
6127;SDS011;7073;42.672;23.256;2022-11-03T10:02:19;22.03;;;13.30;;
6127;SDS011;7073;42.672;23.256;2022-11-03T10:04:50;25.97;;;14.43;;
6127;SDS011;7073;42.672;23.256;2022-11-03T10:07:18;25.00;;;15.90;;
6127;SDS011;7073;42.672;23.256;2022-11-03T10:09:46;31.63;;;12.97;;
6127;SDS011;7073;42.672;23.256;2022-11-03T10:12:17;23.80;;;12.90;;
6127;SDS011;7073;42.672;23.256;2022-11-03T10:14:45;18.73;;;13.07;;
6127;SDS011;7073;42.672;23.256;2022-11-03T10:17:14;27.40;;;13.60;;
6127;SDS011;7073;42.672;23.256;2022-11-03T10:19:44;22.00;;;12.47;;
6127;SDS011;7073;42.672;23.256;2022-11-03T10:22:14;21.83;;;11.90;;
6127;SDS011;7073;42.672;23.256;2022-11-03T10:24:41;17.70;;;12.07;;
6127;SDS011;7073;42.672;23.256;2022-11-03T10:27:20;22.77;;;13.20;;
6127;SDS011;7073;42.672;23.256;2022-11-03T10:30:02;20.03;;;11.13;;
6127;SDS011;7073;42.672;23.256;2022-11-03T10:32:31;23.03;;;11.43;;
6127;SDS011;7073;42.672;23.256;2022-11-03T10:34:59;26.93;;;14.20;;
6127;SDS011;7073;42.672;23.256;2022-11-03T10:37:26;18.50;;;11.77;;
6127;SDS011;7073;42.672;23.256;2022-11-03T10:39:54;24.80;;;10.77;;
6127;SDS011;7073;42.672;23.256;2022-11-03T10:42:24;19.77;;;10.80;;
6127;SDS011;7073;42.672;23.256;2022-11-03T10:45:08;15.20;;;10.30;;
6127;SDS011;7073;42.672;23.256;2022-11-03T10:47:37;18.33;;;10.47;;
6127;SDS011;7073;42.672;23.256;2022-11-03T10:50:11;19.07;;;9.63;;
6127;SDS011;7073;42.672;23.256;2022-11-03T10:52:47;15.63;;;8.33;;
6127;SDS011;7073;42.672;23.256;2022-11-03T10:55:14;17.20;;;8.40;;
6127;SDS011;7073;42.672;23.256;2022-11-03T10:57:43;14.53;;;8.47;;
6127;SDS011;7073;42.672;23.256;2022-11-03T11:00:12;20.43;;;7.73;;
6127;SDS011;7073;42.672;23.256;2022-11-03T11:02:40;13.97;;;7.03;;
6127;SDS011;7073;42.672;23.256;2022-11-03T11:05:11;13.80;;;6.07;;
6127;SDS011;7073;42.672;23.256;2022-11-03T11:07:40;12.03;;;5.50;;
6127;SDS011;7073;42.672;23.256;2022-11-03T11:10:10;14.07;;;5.93;;
6127;SDS011;7073;42.672;23.256;2022-11-03T11:15:39;12.23;;;7.10;;
6127;SDS011;7073;42.672;23.256;2022-11-03T11:18:06;14.40;;;6.30;;
6127;SDS011;7073;42.672;23.256;2022-11-03T11:20:40;12.40;;;5.17;;
6127;SDS011;7073;42.672;23.256;2022-11-03T11:26:28;15.83;;;5.80;;
6127;SDS011;7073;42.672;23.256;2022-11-03T11:47:22;16.80;;;5.50;;
6127;SDS011;7073;42.672;23.256;2022-11-03T11:52:49;13.53;;;6.10;;
6127;SDS011;7073;42.672;23.256;2022-11-03T11:55:24;14.47;;;6.80;;
6127;SDS011;7073;42.672;23.256;2022-11-03T11:57:56;12.57;;;7.37;;
6127;SDS011;7073;42.672;23.256;2022-11-03T12:00:26;16.37;;;6.60;;
6127;SDS011;7073;42.672;23.256;2022-11-03T12:02:56;10.20;;;5.90;;
6127;SDS011;7073;42.672;23.256;2022-11-03T12:05:27;13.87;;;6.43;;
6127;SDS011;7073;42.672;23.256;2022-11-03T12:07:56;12.17;;;6.10;;
6127;SDS011;7073;42.672;23.256;2022-11-03T12:10:23;13.17;;;6.87;;
6127;SDS011;7073;42.672;23.256;2022-11-03T12:12:52;14.30;;;6.60;;
6127;SDS011;7073;42.672;23.256;2022-11-03T12:18:31;16.87;;;5.93;;
6127;SDS011;7073;42.672;23.256;2022-11-03T12:21:02;14.00;;;6.93;;
6127;SDS011;7073;42.672;23.256;2022-11-03T12:23:33;16.50;;;6.63;;
6127;SDS011;7073;42.672;23.256;2022-11-03T12:26:01;15.50;;;7.23;;
6127;SDS011;7073;42.672;23.256;2022-11-03T12:28:30;12.37;;;6.07;;
6127;SDS011;7073;42.672;23.256;2022-11-03T12:30:58;13.47;;;6.17;;
6127;SDS011;7073;42.672;23.256;2022-11-03T12:33:25;11.50;;;5.67;;
6127;SDS011;7073;42.672;23.256;2022-11-03T12:35:53;17.87;;;6.47;;
6127;SDS011;7073;42.672;23.256;2022-11-03T12:38:21;16.53;;;7.60;;
6127;SDS011;7073;42.672;23.256;2022-11-03T12:40:48;12.53;;;5.40;;
6127;SDS011;7073;42.672;23.256;2022-11-03T12:43:15;16.50;;;7.53;;
6127;SDS011;7073;42.672;23.256;2022-11-03T12:45:42;9.37;;;5.33;;
6127;SDS011;7073;42.672;23.256;2022-11-03T12:48:09;9.90;;;5.60;;
6127;SDS011;7073;42.672;23.256;2022-11-03T12:50:35;8.60;;;4.70;;
6127;SDS011;7073;42.672;23.256;2022-11-03T12:53:03;8.97;;;6.00;;
6127;SDS011;7073;42.672;23.256;2022-11-03T12:55:33;13.50;;;5.70;;
6127;SDS011;7073;42.672;23.256;2022-11-03T12:58:00;16.10;;;5.60;;
6127;SDS011;7073;42.672;23.256;2022-11-03T13:00:28;15.53;;;6.57;;
6127;SDS011;7073;42.672;23.256;2022-11-03T13:02:55;13.93;;;6.30;;
6127;SDS011;7073;42.672;23.256;2022-11-03T13:05:21;14.27;;;6.67;;
6127;SDS011;7073;42.672;23.256;2022-11-03T13:07:49;13.00;;;5.80;;
6127;SDS011;7073;42.672;23.256;2022-11-03T13:10:16;15.53;;;6.30;;
6127;SDS011;7073;42.672;23.256;2022-11-03T13:12:44;16.40;;;6.20;;
6127;SDS011;7073;42.672;23.256;2022-11-03T13:15:11;18.87;;;5.77;;
6127;SDS011;7073;42.672;23.256;2022-11-03T13:17:39;19.27;;;5.37;;
6127;SDS011;7073;42.672;23.256;2022-11-03T13:20:07;18.03;;;6.00;;
6127;SDS011;7073;42.672;23.256;2022-11-03T13:22:36;11.77;;;6.57;;
6127;SDS011;7073;42.672;23.256;2022-11-03T13:25:03;14.03;;;6.60;;
6127;SDS011;7073;42.672;23.256;2022-11-03T13:27:31;14.83;;;6.70;;
6127;SDS011;7073;42.672;23.256;2022-11-03T13:29:59;19.97;;;6.40;;
6127;SDS011;7073;42.672;23.256;2022-11-03T13:32:26;20.93;;;7.00;;
6127;SDS011;7073;42.672;23.256;2022-11-03T13:34:53;17.63;;;6.90;;
6127;SDS011;7073;42.672;23.256;2022-11-03T13:37:20;15.10;;;7.03;;
6127;SDS011;7073;42.672;23.256;2022-11-03T13:39:46;11.87;;;7.60;;
6127;SDS011;7073;42.672;23.256;2022-11-03T13:42:13;18.73;;;7.43;;
6127;SDS011;7073;42.672;23.256;2022-11-03T13:44:40;17.50;;;8.17;;
6127;SDS011;7073;42.672;23.256;2022-11-03T13:47:08;18.30;;;7.20;;
6127;SDS011;7073;42.672;23.256;2022-11-03T13:49:35;14.13;;;7.90;;
6127;SDS011;7073;42.672;23.256;2022-11-03T13:52:02;13.90;;;6.90;;
6127;SDS011;7073;42.672;23.256;2022-11-03T13:54:29;16.73;;;7.03;;
6127;SDS011;7073;42.672;23.256;2022-11-03T13:56:57;19.90;;;7.40;;
6127;SDS011;7073;42.672;23.256;2022-11-03T13:59:25;17.60;;;6.80;;
6127;SDS011;7073;42.672;23.256;2022-11-03T14:01:52;15.10;;;7.10;;
6127;SDS011;7073;42.672;23.256;2022-11-03T14:04:21;14.30;;;6.43;;
6127;SDS011;7073;42.672;23.256;2022-11-03T14:06:47;9.33;;;5.50;;
6127;SDS011;7073;42.672;23.256;2022-11-03T14:09:14;26.80;;;7.10;;
6127;SDS011;7073;42.672;23.256;2022-11-03T14:11:41;13.10;;;6.30;;
6127;SDS011;7073;42.672;23.256;2022-11-03T14:14:28;13.37;;;7.47;;
6127;SDS011;7073;42.672;23.256;2022-11-03T14:16:55;18.73;;;6.87;;
6127;SDS011;7073;42.672;23.256;2022-11-03T14:19:23;17.20;;;6.00;;
6127;SDS011;7073;42.672;23.256;2022-11-03T14:21:50;25.87;;;8.07;;
6127;SDS011;7073;42.672;23.256;2022-11-03T14:24:17;20.83;;;8.70;;
6127;SDS011;7073;42.672;23.256;2022-11-03T14:26:47;9.90;;;6.50;;
6127;SDS011;7073;42.672;23.256;2022-11-03T14:29:14;17.53;;;6.63;;
6127;SDS011;7073;42.672;23.256;2022-11-03T14:31:40;20.43;;;6.80;;
6127;SDS011;7073;42.672;23.256;2022-11-03T14:34:07;19.00;;;6.63;;
6127;SDS011;7073;42.672;23.256;2022-11-03T14:36:35;19.10;;;7.03;;
6127;SDS011;7073;42.672;23.256;2022-11-03T14:39:02;20.27;;;6.60;;
6127;SDS011;7073;42.672;23.256;2022-11-03T14:41:29;25.60;;;8.13;;
6127;SDS011;7073;42.672;23.256;2022-11-03T14:44:14;13.97;;;7.17;;
6127;SDS011;7073;42.672;23.256;2022-11-03T14:46:41;17.43;;;7.30;;
6127;SDS011;7073;42.672;23.256;2022-11-03T14:49:11;15.97;;;7.90;;
6127;SDS011;7073;42.672;23.256;2022-11-03T14:51:39;25.70;;;8.00;;
6127;SDS011;7073;42.672;23.256;2022-11-03T14:54:07;14.87;;;7.70;;
6127;SDS011;7073;42.672;23.256;2022-11-03T14:56:33;22.13;;;8.60;;
6127;SDS011;7073;42.672;23.256;2022-11-03T14:59:00;18.20;;;8.80;;
6127;SDS011;7073;42.672;23.256;2022-11-03T15:01:27;23.60;;;8.20;;
6127;SDS011;7073;42.672;23.256;2022-11-03T15:03:54;24.03;;;8.60;;
6127;SDS011;7073;42.672;23.256;2022-11-03T15:06:21;24.87;;;9.17;;
6127;SDS011;7073;42.672;23.256;2022-11-03T15:08:49;31.13;;;9.33;;
6127;SDS011;7073;42.672;23.256;2022-11-03T15:11:16;18.00;;;9.60;;
6127;SDS011;7073;42.672;23.256;2022-11-03T15:13:43;26.40;;;9.53;;
6127;SDS011;7073;42.672;23.256;2022-11-03T15:16:09;28.97;;;11.57;;
6127;SDS011;7073;42.672;23.256;2022-11-03T15:18:36;29.57;;;11.13;;
6127;SDS011;7073;42.672;23.256;2022-11-03T15:21:03;33.80;;;12.00;;
6127;SDS011;7073;42.672;23.256;2022-11-03T15:23:31;27.27;;;9.30;;
6127;SDS011;7073;42.672;23.256;2022-11-03T15:25:59;31.77;;;9.90;;
6127;SDS011;7073;42.672;23.256;2022-11-03T15:28:26;24.23;;;11.10;;
6127;SDS011;7073;42.672;23.256;2022-11-03T15:30:53;36.53;;;10.53;;